OIHH  Hamadan  Airport

Hamadan, Iran

Add Bookmark
ICAO OIHH
IATA HDM
Type Airport
Status Operational
Latitude
34° 52' 9" N
34.869202
Longitude
48° 33' 9" E
48.552502
Local (GMT +4.5 ) UTC
Apr 30, 2016 05:55 am Apr 30, 2016 01:25
Sunrise-Sunset Local UTC
Begin Civil Twilight 05:57 am 01:27
Sunrise 06:24 am 01:54
Sunset 08:01 pm 15:31
End Civil Twilight 08:28 pm 15:58
VFR
VFR
MVFR
MVFR
IFR
IFR
LIFR
LIFR
Unknown
Unavailable

Current Weather

METAR Observed
OIHH 300050Z AUTO 36012KT //// // ////// 09/07 Q1018 Sat, Apr 30, 2016 @ 00:50 UTC
(35 Minutes ago)
Wind Conditions
360° at 12 knots (22 kph)
  • No significant weather
Temperatures Readings Precipitation
Current Temp
9°C
48°F
Dewpoint
7°C
45°F
Humidity 87%
Altimeter 30.06" Hg
Sea Level Pressure 1,018 mb
Field Elevation
1,757 m
5,764 ft
None Recorded

Additional weather within a 92.6km radius of OIHH

Map ICAO Location
OIHM 69.5km S/SE (160°)
VFR
VFR
MVFR
MVFR
IFR
IFR
LIFR
LIFR
Unknown
Unavailable
-
-

CheckWX.com is intended as a tool to help pilots better visualize weather data. It is not intended as a substitute for an official weather briefing obtained from a Flight Service Station. CheckWX.com does not meet the FAA requirements for an official pre-flight weather briefing. Therefore, it's important that pilots still call and obtain an official FSS pre-flight weather briefing.

© 2007-2016 CheckWX.com
01:25:17 UTC